Time;durP1;ratioP1;P1;durP2;ratioP2;P2;SDS_P1;SDS_P2;PMS_P1;PMS_P2;Temp;Humidity;BMP_temperature;BMP_pressure;BME280_temperature;BME280_humidity;BME280_pressure;Samples;Min_cycle;Max_cycle;Signal;HPM_P1;HPM_P2
2023/03/10 00:01:17;;;;;;;12.98;2.28;;;9.60;99.90;;;-144.05;89.92;57010.25;5075828;28;20057;-85
2023/03/10 00:03:45;;;;;;;12.05;2.67;;;9.60;99.90;;;-144.05;90.45;56961.41;5059455;28;20035;-83
2023/03/10 00:06:16;;;;;;;11.88;2.58;;;9.60;99.90;;;-144.05;90.25;56982.66;5075055;28;20093;-85
2023/03/10 00:08:42;;;;;;;13.25;2.42;;;9.60;99.90;;;-144.05;89.67;56993.25;5057162;28;20032;-86
2023/03/10 00:11:09;;;;;;;7.05;2.22;;;9.70;99.90;;;-144.05;89.51;56976.28;5057625;28;20033;-85
2023/03/10 00:13:36;;;;;;;7.10;2.08;;;9.70;99.90;;;-144.05;89.54;56974.16;5057179;28;20032;-87
2023/03/10 00:16:02;;;;;;;9.52;1.80;;;9.70;99.90;;;-144.05;89.45;57008.13;5057654;28;20033;-85
2023/03/10 00:18:28;;;;;;;5.22;1.75;;;9.60;99.90;;;-144.05;89.71;57001.75;5059354;28;20028;-85
2023/03/10 00:20:54;;;;;;;5.13;1.83;;;9.70;99.90;;;-144.05;89.56;56982.66;5064091;28;20488;-87
2023/03/10 00:23:22;;;;;;;4.53;1.73;;;9.70;99.90;;;-144.05;89.49;56972.03;5065329;28;20021;-86
2023/03/10 00:25:59;;;;;;;6.22;1.50;;;9.70;99.90;;;-144.05;90.20;56995.38;5064648;28;20024;-85
2023/03/10 00:28:26;;;;;;;5.97;1.95;;;9.60;99.90;;;-144.05;90.38;56974.16;5063098;28;20089;-85
2023/03/10 00:31:11;;;;;;;6.35;1.58;;;9.70;99.90;;;-144.05;89.92;56993.25;5081640;28;20116;-86
2023/03/10 00:33:38;;;;;;;12.07;1.70;;;9.80;99.90;;;-144.05;90.02;56989.00;5063885;28;20174;-87
2023/03/10 00:36:18;;;;;;;4.35;1.20;;;9.80;99.90;;;-144.05;89.84;56999.63;5062052;28;20032;-81
2023/03/10 00:38:46;;;;;;;3.85;1.50;;;9.90;99.90;;;-144.05;89.64;56993.25;5058999;28;20186;-83
2023/03/10 00:41:23;;;;;;;3.65;0.90;;;9.90;99.90;;;-144.05;89.37;56999.63;5077158;28;20056;-80
2023/03/10 00:43:51;;;;;;;3.88;1.05;;;10.00;99.90;;;-144.05;89.79;57001.75;5059225;28;20559;-84
2023/03/10 00:46:19;;;;;;;5.28;1.13;;;10.00;99.90;;;-144.05;89.66;56991.13;5076863;28;20084;-84
2023/03/10 00:48:45;;;;;;;4.50;1.25;;;10.00;99.90;;;-144.05;89.51;57035.75;5059439;28;20029;-85
2023/03/10 00:51:11;;;;;;;3.33;1.00;;;10.00;99.90;;;-144.05;89.27;57001.75;5059185;28;20507;-82
2023/03/10 00:53:40;;;;;;;4.50;1.30;;;10.00;99.90;;;-144.05;89.48;56980.53;5077879;28;20040;-85
2023/03/10 00:56:25;;;;;;;6.35;1.70;;;10.00;99.90;;;-144.05;90.03;56969.91;5060047;28;20032;-84
2023/03/10 00:58:59;;;;;;;4.15;1.23;;;10.00;99.90;;;-144.05;90.54;56980.53;5059920;28;20025;-84
2023/03/10 01:01:39;;;;;;;6.82;1.75;;;10.00;99.90;;;-144.05;90.50;57006.00;5077829;28;20040;-81
2023/03/10 01:04:17;;;;;;;5.10;1.30;;;10.00;99.90;;;-144.05;90.43;57010.25;5064146;28;20044;-85
2023/03/10 01:06:46;;;;;;;3.75;1.10;;;10.00;99.90;;;-144.05;90.54;56997.50;5069717;28;20029;-83
2023/03/10 01:09:12;;;;;;;6.10;1.30;;;10.00;99.90;;;-144.05;90.62;56969.91;5058749;28;20031;-81
2023/03/10 01:11:39;;;;;;;6.32;1.38;;;10.00;99.90;;;-144.05;89.96;56986.91;5057690;28;20028;-83
2023/03/10 01:14:11;;;;;;;6.55;1.45;;;10.00;99.90;;;-144.05;90.24;57001.75;5058319;28;20036;-81
2023/03/10 01:16:37;;;;;;;5.70;1.75;;;10.00;99.90;;;-144.05;90.11;56974.16;5058361;28;20036;-81
2023/03/10 01:19:06;;;;;;;5.95;1.30;;;9.90;99.90;;;-144.05;90.45;56974.16;5078725;28;20508;-82
2023/03/10 01:21:37;;;;;;;2.30;1.50;;;10.00;99.90;;;-144.05;90.85;56989.00;5061192;28;20040;-84
2023/03/10 01:24:05;;;;;;;3.28;1.48;;;10.00;99.90;;;-144.05;91.12;56980.53;5058078;28;20037;-83
2023/03/10 01:26:31;;;;;;;3.88;1.95;;;10.00;99.90;;;-144.05;90.93;57008.13;5057261;28;20036;-81
2023/03/10 01:28:57;;;;;;;3.00;1.00;;;10.00;99.90;;;-144.05;90.37;56976.28;5057145;28;20364;-82
2023/03/10 01:31:23;;;;;;;3.17;1.00;;;10.00;99.90;;;-144.05;88.97;56995.38;5056406;28;20036;-81
2023/03/10 01:33:50;;;;;;;2.55;0.90;;;10.10;99.90;;;-144.05;88.81;56978.41;5056983;28;20170;-82
2023/03/10 01:36:25;;;;;;;3.65;0.90;;;10.10;99.90;;;-144.05;88.06;56978.41;5057048;28;20078;-82
2023/03/10 01:38:53;;;;;;;3.85;0.70;;;10.10;99.90;;;-144.05;88.33;56993.25;5057127;28;20479;-83
2023/03/10 01:41:22;;;;;;;1.75;0.75;;;10.00;99.90;;;-144.05;88.41;56972.03;5058401;28;20029;-85
2023/03/10 01:43:55;;;;;;;2.22;0.82;;;10.00;99.90;;;-144.05;88.84;56997.50;5057010;28;20412;-83
2023/03/10 01:46:30;;;;;;;1.95;0.80;;;10.10;99.90;;;-144.05;89.19;56995.38;5056629;28;20028;-83
2023/03/10 01:49:08;;;;;;;2.33;0.80;;;10.00;99.90;;;-144.05;88.78;56974.16;5056713;28;20391;-83
2023/03/10 01:51:38;;;;;;;1.60;0.90;;;10.00;99.90;;;-144.05;88.91;57001.75;5057234;28;20630;-83
2023/03/10 01:54:13;;;;;;;3.65;1.15;;;9.90;99.90;;;-144.05;88.83;57012.38;5057493;28;20106;-83
2023/03/10 01:56:41;;;;;;;1.52;0.88;;;9.90;99.90;;;-144.05;89.53;56991.13;5057508;28;20028;-84
2023/03/10 01:59:09;;;;;;;3.20;0.98;;;9.80;99.90;;;-144.05;89.54;56991.13;5057266;28;20484;-84
2023/03/10 02:01:36;;;;;;;1.88;0.90;;;9.80;99.90;;;-144.05;89.40;56997.50;5058541;28;20404;-83
2023/03/10 02:04:22;;;;;;;1.77;1.30;;;9.80;99.90;;;-144.05;89.31;57008.13;5076143;28;20031;-83
2023/03/10 02:06:51;;;;;;;2.03;1.10;;;9.70;99.90;;;-144.05;89.45;57016.63;5080941;28;20472;-86
2023/03/10 02:09:20;;;;;;;2.33;1.05;;;9.60;99.90;;;-144.05;89.64;56997.50;5057536;28;20032;-83
2023/03/10 02:11:48;;;;;;;2.22;1.10;;;9.60;99.90;;;-144.05;89.79;56989.00;5056409;28;20041;-85
2023/03/10 02:14:15;;;;;;;1.80;1.05;;;9.60;99.90;;;-144.05;90.45;57006.00;5056443;28;20028;-84
2023/03/10 02:16:41;;;;;;;3.50;1.55;;;9.50;99.90;;;-144.05;90.87;56986.91;5056066;28;20078;-83
2023/03/10 02:20:00;;;;;;;6.05;1.80;;;9.50;99.90;;;-144.05;91.17;56965.66;5055918;28;20056;-83
2023/03/10 02:22:26;;;;;;;2.00;1.65;;;9.40;99.90;;;-144.05;91.00;56999.63;4972493;28;20038;-84
2023/03/10 02:25:23;;;;;;;1.10;0.90;;;9.40;99.90;;;-144.05;91.28;56980.53;5035694;28;20041;-85
2023/03/10 02:27:50;;;;;;;2.47;1.10;;;9.40;99.90;;;-144.05;91.28;56984.78;5055850;28;20546;-85
2023/03/10 02:30:33;;;;;;;1.42;1.10;;;9.40;99.90;;;-144.05;90.65;56986.91;5055200;28;20036;-85
2023/03/10 02:33:12;;;;;;;2.30;0.90;;;9.30;99.90;;;-144.05;90.57;56993.25;5073610;28;20082;-84
2023/03/10 02:35:41;;;;;;;2.90;1.00;;;9.30;99.90;;;-144.05;90.62;56989.00;5056188;28;20063;-84
2023/03/10 02:38:07;;;;;;;1.30;1.02;;;9.30;99.90;;;-144.05;91.06;56991.13;5056320;28;20033;-84
2023/03/10 02:40:51;;;;;;;1.92;0.82;;;9.30;99.90;;;-144.05;91.81;57001.75;5039324;28;20037;-82
2023/03/10 02:43:45;;;;;;;1.77;1.10;;;9.30;99.90;;;-144.05;92.06;57014.50;5055272;28;20028;-85
2023/03/10 02:46:13;;;;;;;1.50;1.20;;;9.20;99.90;;;-144.05;92.41;56984.78;5053884;28;20105;-85
2023/03/10 02:48:40;;;;;;;2.42;1.52;;;9.30;99.90;;;-144.05;92.62;56991.13;5074399;28;20021;-86
2023/03/10 02:51:25;;;;;;;2.00;1.60;;;9.30;99.90;;;-144.05;92.56;57001.75;5056691;28;20113;-83
2023/03/10 02:53:51;;;;;;;3.40;1.77;;;9.30;99.90;;;-144.05;92.59;56976.28;5056861;28;20464;-85
2023/03/10 02:56:19;;;;;;;4.72;2.28;;;9.30;99.90;;;-144.05;92.34;56993.25;5056968;28;20036;-85
2023/03/10 02:58:45;;;;;;;1.90;1.55;;;9.20;99.90;;;-144.05;92.58;56997.50;5056468;28;20115;-85
2023/03/10 03:01:12;;;;;;;5.05;1.70;;;9.20;99.90;;;-144.05;92.66;57014.50;5057076;28;20322;-85
2023/03/10 03:03:40;;;;;;;1.42;1.17;;;9.20;99.90;;;-144.05;92.52;56989.00;5057242;28;20024;-83
2023/03/10 03:06:06;;;;;;;1.83;1.60;;;9.20;99.90;;;-144.05;92.29;57008.13;5058131;28;20067;-86
2023/03/10 03:08:40;;;;;;;2.47;1.67;;;9.20;99.90;;;-144.05;92.61;57023.00;5059523;28;20028;-83
2023/03/10 03:11:06;;;;;;;2.47;1.25;;;9.20;99.90;;;-144.05;92.98;57006.00;5094201;22;20102;-86
2023/03/10 03:13:32;;;;;;;1.77;1.65;;;9.20;99.90;;;-144.05;92.92;56993.25;5064787;28;20020;-87
2023/03/10 03:15:57;;;;;;;4.00;1.65;;;9.30;99.90;;;-144.05;92.90;57010.25;5064983;28;20441;-85
2023/03/10 03:18:23;;;;;;;2.83;1.73;;;9.30;99.90;;;-144.05;93.29;56982.66;5065818;28;20406;-86
2023/03/10 03:20:49;;;;;;;4.05;2.15;;;9.30;99.90;;;-144.05;93.55;56980.53;5085072;28;20037;-86
2023/03/10 03:23:15;;;;;;;3.35;1.92;;;9.30;99.90;;;-144.05;93.07;57008.13;5073700;28;20020;-83
2023/03/10 03:25:42;;;;;;;3.83;1.83;;;9.30;99.90;;;-144.05;93.80;56999.63;5060638;28;20024;-85
2023/03/10 03:28:10;;;;;;;3.85;1.98;;;9.40;99.90;;;-144.05;93.59;57001.75;5057360;28;20029;-83
2023/03/10 03:30:38;;;;;;;2.90;1.38;;;9.40;99.90;;;-144.05;93.55;57012.38;5056836;28;20124;-85
2023/03/10 03:33:06;;;;;;;2.33;1.42;;;9.40;99.90;;;-144.05;93.87;56991.13;5075862;28;20040;-85
2023/03/10 03:35:36;;;;;;;2.55;1.23;;;9.50;99.90;;;-144.05;93.40;56993.25;5075300;28;20032;-84
2023/03/10 03:38:04;;;;;;;1.60;1.10;;;9.50;99.90;;;-144.05;93.50;56976.28;5074465;28;20058;-85
2023/03/10 03:40:33;;;;;;;3.42;1.30;;;9.50;99.90;;;-144.05;93.29;56999.63;5056480;28;20047;-85
2023/03/10 03:42:59;;;;;;;2.42;0.90;;;9.50;99.90;;;-144.05;92.87;56976.28;5058295;28;20155;-85
2023/03/10 03:45:28;;;;;;;3.58;1.17;;;9.60;99.90;;;-144.05;92.06;56997.50;5057270;28;20025;-84
2023/03/10 03:47:55;;;;;;;3.50;1.40;;;9.50;99.90;;;-144.05;92.36;56993.25;5074315;28;20029;-85
2023/03/10 03:50:22;;;;;;;4.43;1.33;;;9.50;99.90;;;-144.05;91.84;56989.00;5082495;28;20048;-85
2023/03/10 03:52:49;;;;;;;2.13;0.95;;;9.50;99.90;;;-144.05;91.83;56995.38;5065037;28;20038;-86
2023/03/10 03:55:18;;;;;;;4.78;1.00;;;9.40;99.90;;;-144.05;92.38;56997.50;5082394;28;20051;-87
2023/03/10 03:57:45;;;;;;;2.90;1.13;;;9.50;99.90;;;-144.05;91.59;56991.13;5065633;28;20033;-85
2023/03/10 04:00:23;;;;;;;3.65;1.15;;;9.50;99.90;;;-144.05;92.19;56974.16;5084033;28;20488;-85
2023/03/10 04:02:49;;;;;;;3.47;1.30;;;9.50;99.90;;;-144.05;91.60;56986.91;5066823;28;20039;-82
2023/03/10 04:05:16;;;;;;;3.10;1.42;;;9.50;99.90;;;-144.05;91.40;56993.25;5057244;28;20031;-85
2023/03/10 04:07:44;;;;;;;6.38;1.00;;;9.40;99.90;;;-144.05;91.38;56982.66;5076504;28;20032;-87
2023/03/10 04:10:16;;;;;;;5.30;1.15;;;9.40;99.90;;;-144.05;92.11;56991.13;5080645;28;20093;-87
2023/03/10 04:12:42;;;;;;;4.30;1.30;;;9.40;99.90;;;-144.05;92.16;57010.25;5067249;28;20344;-85
2023/03/10 04:15:08;;;;;;;6.07;1.52;;;9.50;99.90;;;-144.05;92.24;56991.13;5091001;28;20024;-87
2023/03/10 04:17:35;;;;;;;4.55;1.73;;;9.40;99.90;;;-144.05;91.71;57003.88;5073945;28;20062;-83
2023/03/10 04:20:04;;;;;;;5.82;1.90;;;9.50;99.90;;;-144.05;91.49;57001.75;5065796;28;20054;-85
2023/03/10 04:22:30;;;;;;;4.82;2.35;;;9.50;99.90;;;-144.05;92.20;56989.00;5056422;28;20048;-85
2023/03/10 04:24:56;;;;;;;4.65;2.08;;;9.50;99.90;;;-144.05;91.84;57010.25;5075000;28;20096;-85
2023/03/10 04:27:22;;;;;;;8.48;2.10;;;9.50;99.90;;;-144.05;91.52;56991.13;5057608;28;20244;-83
2023/03/10 04:29:48;;;;;;;8.80;2.08;;;9.50;99.90;;;-144.05;91.26;57023.00;5074704;28;20052;-87
2023/03/10 04:32:14;;;;;;;3.35;1.90;;;9.40;99.90;;;-144.05;91.31;56986.91;5075476;28;20025;-84
2023/03/10 04:34:40;;;;;;;9.40;3.38;;;9.40;99.90;;;-144.05;91.71;56997.50;5057590;28;20040;-85
2023/03/10 04:37:06;;;;;;;7.32;2.90;;;9.40;99.90;;;-144.05;91.79;56986.91;5057904;28;20029;-85
2023/03/10 04:39:32;;;;;;;5.25;2.67;;;9.40;99.90;;;-144.05;91.46;57018.75;5076473;28;20372;-86
2023/03/10 04:41:58;;;;;;;11.60;3.90;;;9.50;99.90;;;-144.05;91.50;57001.75;5059875;28;20055;-84
2023/03/10 04:44:24;;;;;;;5.57;3.03;;;9.50;99.90;;;-144.05;91.39;57025.13;5059920;28;20079;-85
2023/03/10 04:46:50;;;;;;;8.98;3.65;;;9.40;99.90;;;-144.05;91.21;57014.50;5078896;28;20089;-86
2023/03/10 04:49:16;;;;;;;6.93;3.78;;;9.40;99.90;;;-144.05;90.74;57001.75;5061603;28;20024;-86
2023/03/10 04:51:42;;;;;;;7.82;3.70;;;9.40;99.90;;;-144.05;90.85;56997.50;5062105;28;20036;-83
2023/03/10 04:54:07;;;;;;;6.05;3.53;;;9.40;99.90;;;-144.05;90.87;56980.53;5062240;28;20028;-84
2023/03/10 04:56:33;;;;;;;7.18;4.00;;;9.40;99.90;;;-144.05;90.72;56997.50;5062306;28;20026;-86
2023/03/10 04:58:59;;;;;;;7.30;3.70;;;9.40;99.90;;;-144.05;90.59;56991.13;5062364;28;20109;-83
2023/03/10 05:01:25;;;;;;;9.65;4.43;;;9.40;99.90;;;-144.05;90.60;56991.13;5063846;28;20025;-85
2023/03/10 05:03:51;;;;;;;7.93;4.30;;;9.40;99.90;;;-144.05;89.97;57001.75;5064424;28;20112;-86
2023/03/10 05:06:21;;;;;;;9.60;4.10;;;9.40;99.90;;;-144.05;89.86;56991.13;5074197;28;20037;-84
2023/03/10 05:08:47;;;;;;;11.77;4.53;;;9.40;99.90;;;-144.05;89.58;56989.00;5070894;28;20089;-84
2023/03/10 05:11:13;;;;;;;8.57;3.42;;;9.40;99.90;;;-144.05;89.07;56997.50;5061197;28;20047;-86
2023/03/10 05:13:39;;;;;;;9.20;3.55;;;9.40;99.90;;;-144.05;89.05;57008.13;5062573;28;20131;-84
2023/03/10 05:16:20;;;;;;;8.77;3.83;;;9.40;99.90;;;-144.05;88.69;56997.50;5063295;28;20033;-84
2023/03/10 05:18:46;;;;;;;7.90;3.92;;;9.40;99.90;;;-144.05;88.70;57012.38;5081432;28;20487;-84
2023/03/10 05:21:14;;;;;;;9.50;4.00;;;9.40;99.90;;;-144.05;87.97;57001.75;5063639;28;20271;-84
2023/03/10 05:23:40;;;;;;;7.28;4.10;;;9.40;99.90;;;-144.05;88.63;57010.25;5081853;28;20063;-84
2023/03/10 05:26:10;;;;;;;9.27;3.83;;;9.30;99.90;;;-144.05;88.51;56997.50;5081878;28;20055;-86
2023/03/10 05:28:37;;;;;;;10.13;4.05;;;9.30;99.90;;;-144.05;88.56;56991.13;5081884;28;20076;-84
2023/03/10 05:31:14;;;;;;;7.40;3.13;;;9.30;99.90;;;-144.05;88.50;56999.63;5080624;28;20127;-81
2023/03/10 05:33:41;;;;;;;6.90;3.38;;;9.40;99.90;;;-144.05;88.10;56982.66;5080933;28;20029;-85
2023/03/10 05:36:12;;;;;;;9.68;3.80;;;9.40;99.90;;;-144.05;87.94;56967.78;5066109;28;20024;-83
2023/03/10 05:38:38;;;;;;;7.40;3.47;;;9.40;99.90;;;-144.05;87.87;56993.25;5063535;28;20043;-84
2023/03/10 05:41:11;;;;;;;6.97;2.70;;;9.40;99.90;;;-144.05;87.80;57023.00;5062772;28;20028;-86
2023/03/10 05:43:38;;;;;;;10.27;2.83;;;9.30;99.90;;;-144.05;87.52;57018.75;5063395;28;20081;-86
2023/03/10 05:46:06;;;;;;;7.65;2.47;;;9.40;99.90;;;-144.05;87.05;57003.88;5065043;28;20033;-85
2023/03/10 05:48:32;;;;;;;11.10;2.50;;;9.40;99.90;;;-144.05;86.79;57029.38;5063613;28;20035;-86
2023/03/10 05:51:11;;;;;;;11.57;2.45;;;9.40;99.90;;;-144.05;86.68;56982.66;5064188;28;20429;-85
2023/03/10 05:53:38;;;;;;;9.63;2.35;;;9.40;99.90;;;-144.05;86.61;57008.13;5082495;28;20543;-84
2023/03/10 05:56:16;;;;;;;8.93;2.42;;;9.50;99.90;;;-144.05;86.90;56995.38;5082267;28;20035;-86
2023/03/10 05:58:44;;;;;;;10.30;2.75;;;9.50;99.90;;;-144.05;86.62;57006.00;5085456;28;20088;-82
2023/03/10 06:01:11;;;;;;;8.25;2.13;;;9.50;99.90;;;-144.05;86.74;56989.00;5073421;28;20033;-86
2023/03/10 06:03:37;;;;;;;10.65;2.20;;;9.50;99.90;;;-144.05;86.42;57001.75;5085725;28;20037;-81
2023/03/10 06:06:05;;;;;;;8.32;2.10;;;9.40;99.90;;;-144.05;86.50;57014.50;5065180;28;20043;-82
2023/03/10 06:08:33;;;;;;;12.55;2.20;;;9.40;99.90;;;-144.05;86.67;57014.50;5083015;28;20467;-84
2023/03/10 06:10:59;;;;;;;7.60;1.95;;;9.40;99.90;;;-144.05;86.57;57003.88;5065315;28;20036;-84
2023/03/10 06:13:25;;;;;;;8.93;2.10;;;9.40;99.90;;;-144.05;86.47;56999.63;5083423;28;20093;-85
2023/03/10 06:16:07;;;;;;;12.48;2.25;;;9.40;99.90;;;-144.05;86.61;57006.00;5065454;28;20082;-83
2023/03/10 06:18:34;;;;;;;8.07;1.85;;;9.40;99.90;;;-144.05;86.38;57006.00;5082601;28;20060;-84
2023/03/10 06:21:06;;;;;;;9.85;1.90;;;9.40;99.90;;;-144.05;86.06;56991.13;5064410;28;20033;-82
2023/03/10 06:23:33;;;;;;;8.20;1.95;;;9.40;99.90;;;-144.05;86.17;57003.88;5064203;28;20029;-85
2023/03/10 06:26:12;;;;;;;7.80;2.53;;;9.40;99.90;;;-144.05;86.14;57023.00;5063860;28;20509;-83
2023/03/10 06:28:42;;;;;;;11.88;3.13;;;9.40;99.90;;;-144.05;85.97;56989.00;5077644;28;20020;-85
2023/03/10 06:31:19;;;;;;;14.35;2.38;;;9.40;99.90;;;-144.05;85.44;57035.75;5060491;28;20028;-85
2023/03/10 06:33:46;;;;;;;12.38;2.55;;;9.40;99.90;;;-144.05;84.95;57027.25;5060318;28;20256;-85
2023/03/10 06:36:14;;;;;;;11.95;2.30;;;9.40;99.90;;;-144.05;84.91;56999.63;5077036;28;20036;-84
2023/03/10 06:38:41;;;;;;;11.73;2.30;;;9.40;99.90;;;-144.05;85.00;57031.50;5059460;28;20024;-83
2023/03/10 06:41:08;;;;;;;11.40;2.45;;;9.50;99.90;;;-144.05;85.19;57027.25;5059424;28;20091;-83
2023/03/10 06:43:35;;;;;;;6.82;2.70;;;9.50;99.90;;;-144.05;84.39;56993.25;5079428;28;20103;-83
2023/03/10 06:46:08;;;;;;;6.40;2.70;;;9.50;99.90;;;-144.05;84.91;56984.78;5077839;28;20020;-84
2023/03/10 06:48:37;;;;;;;8.90;2.55;;;9.50;99.90;;;-144.05;84.93;57018.75;5075296;28;20027;-83
2023/03/10 06:51:16;;;;;;;12.30;2.35;;;9.60;99.90;;;-144.05;85.07;57003.88;5058727;28;20222;-85
2023/03/10 06:53:42;;;;;;;6.07;1.95;;;9.60;99.90;;;-144.05;84.71;57016.63;5061568;28;20161;-84
2023/03/10 06:56:19;;;;;;;7.85;2.20;;;9.60;99.90;;;-144.05;84.28;56995.38;5083085;28;20173;-83
2023/03/10 06:58:47;;;;;;;13.05;2.30;;;9.70;99.90;;;-144.05;84.25;56963.53;5064371;28;20040;-84
2023/03/10 07:01:30;;;;;;;11.02;2.53;;;9.70;99.90;;;-144.05;83.97;57001.75;5082692;28;20037;-86
2023/03/10 07:03:59;;;;;;;8.02;2.15;;;9.70;99.90;;;-144.05;84.61;57008.13;5082820;28;20021;-83
2023/03/10 07:06:26;;;;;;;7.00;2.28;;;9.70;99.90;;;-144.05;84.84;57016.63;5074416;28;20075;-85
2023/03/10 07:08:53;;;;;;;8.30;2.28;;;9.80;99.90;;;-144.05;84.24;57006.00;5062624;28;20120;-85
2023/03/10 07:11:21;;;;;;;9.23;2.58;;;9.80;99.90;;;-144.05;84.37;57006.00;5082886;28;20032;-84
2023/03/10 07:13:47;;;;;;;8.70;2.13;;;9.80;99.90;;;-144.05;84.03;56989.00;5080346;28;20442;-85
2023/03/10 07:16:14;;;;;;;6.93;2.45;;;9.80;99.90;;;-144.05;84.08;57020.88;5061869;28;20060;-81
2023/03/10 07:18:40;;;;;;;9.93;2.22;;;9.90;99.90;;;-144.05;83.78;56997.50;5080712;28;20036;-82
2023/03/10 07:21:13;;;;;;;9.60;2.20;;;9.90;99.90;;;-144.05;83.54;57016.63;5061864;28;20032;-82
2023/03/10 07:23:39;;;;;;;6.65;1.95;;;9.90;99.90;;;-144.05;83.95;56999.63;5060291;28;20031;-81
2023/03/10 07:26:07;;;;;;;9.90;2.28;;;9.90;99.90;;;-144.05;84.49;56986.91;5059985;28;20048;-81
2023/03/10 07:28:37;;;;;;;11.85;2.28;;;9.90;99.90;;;-144.05;85.50;56980.53;5059305;28;20035;-81
2023/03/10 07:31:07;;;;;;;10.55;2.92;;;9.80;99.90;;;-144.05;85.36;57001.75;5078399;28;20024;-81
2023/03/10 07:33:34;;;;;;;6.47;2.17;;;9.80;99.90;;;-144.05;86.16;57001.75;5059983;28;20051;-83
2023/03/10 07:36:11;;;;;;;12.23;2.03;;;9.80;99.90;;;-144.05;86.12;56995.38;5080161;28;20130;-84
2023/03/10 07:38:38;;;;;;;11.55;1.90;;;9.70;99.90;;;-144.05;86.96;57008.13;5080861;28;20479;-83
2023/03/10 07:41:15;;;;;;;8.05;2.17;;;9.80;99.90;;;-144.05;86.39;56984.78;5063475;28;20029;-82
2023/03/10 07:43:42;;;;;;;8.75;2.05;;;9.80;99.90;;;-144.05;86.37;56984.78;5062415;28;20084;-84
2023/03/10 07:46:13;;;;;;;11.30;2.22;;;9.80;99.90;;;-144.05;86.77;57001.75;5080667;28;20032;-84
2023/03/10 07:48:39;;;;;;;11.02;2.58;;;9.70;99.90;;;-144.05;86.63;57006.00;5062697;28;20016;-82
2023/03/10 07:51:06;;;;;;;10.23;2.95;;;9.70;99.90;;;-144.05;86.79;57018.75;5062116;28;20028;-84
2023/03/10 07:53:34;;;;;;;10.75;2.95;;;9.70;99.90;;;-144.05;87.18;56984.78;5061615;28;20024;-82
2023/03/10 07:56:10;;;;;;;7.45;2.30;;;9.70;99.90;;;-144.05;87.30;57012.38;5079830;28;20103;-82
2023/03/10 07:58:37;;;;;;;12.68;2.95;;;9.80;99.90;;;-144.05;87.04;56997.50;5080450;28;20028;-79
2023/03/10 08:01:07;;;;;;;6.70;2.60;;;9.80;99.90;;;-144.05;87.00;56984.78;5061976;28;20369;-82
2023/03/10 08:03:34;;;;;;;9.60;2.63;;;9.80;99.90;;;-144.05;86.85;56995.38;5080533;28;20025;-84
2023/03/10 08:06:01;;;;;;;11.05;3.45;;;9.80;99.90;;;-144.05;87.28;56995.38;5079484;28;20085;-82
2023/03/10 08:08:27;;;;;;;11.25;3.22;;;9.80;99.90;;;-144.05;87.04;56991.13;5079923;28;20131;-82
2023/03/10 08:11:09;;;;;;;7.80;2.63;;;9.90;99.90;;;-144.05;86.19;56980.53;5079535;28;20056;-84
2023/03/10 08:13:36;;;;;;;7.22;2.60;;;10.00;99.90;;;-144.05;85.93;57003.88;5062447;28;20029;-83
2023/03/10 08:16:03;;;;;;;8.23;3.25;;;10.10;99.90;;;-144.05;85.25;56995.38;5063390;28;20036;-85
2023/03/10 08:18:30;;;;;;;9.85;3.58;;;10.20;99.90;;;-144.05;85.79;56995.38;5081576;28;20425;-80
2023/03/10 08:20:57;;;;;;;9.10;4.05;;;10.30;99.90;;;-144.05;85.27;57001.75;5062980;28;20047;-82
2023/03/10 08:23:24;;;;;;;8.18;2.90;;;10.30;99.90;;;-144.05;85.97;56989.00;5062768;28;20425;-82
2023/03/10 08:25:51;;;;;;;8.55;3.67;;;10.40;99.90;;;-144.05;85.84;56991.13;5080126;28;20036;-84
2023/03/10 08:28:17;;;;;;;9.77;3.35;;;10.30;99.90;;;-144.05;85.81;56995.38;5062687;28;20028;-85
2023/03/10 08:30:43;;;;;;;6.13;3.33;;;10.10;99.90;;;-144.05;86.31;57020.88;5062506;28;20055;-83
2023/03/10 08:33:09;;;;;;;10.45;3.60;;;10.10;99.90;;;-144.05;85.55;56997.50;5062746;28;20127;-86
2023/03/10 08:35:36;;;;;;;11.55;3.45;;;10.10;99.90;;;-144.05;85.45;56986.91;5080429;28;20455;-84
2023/03/10 08:38:03;;;;;;;10.02;3.97;;;10.20;99.90;;;-144.05;85.89;57006.00;5064008;28;20119;-84
2023/03/10 08:40:31;;;;;;;11.15;3.67;;;10.30;99.90;;;-144.05;85.41;57001.75;5080683;28;20075;-81
2023/03/10 08:42:57;;;;;;;8.02;4.03;;;10.50;99.90;;;-144.05;84.99;56989.00;5079161;28;20476;-81
2023/03/10 08:45:23;;;;;;;8.48;3.65;;;10.50;99.90;;;-144.05;84.27;57003.88;5080135;28;20397;-86
2023/03/10 08:47:49;;;;;;;7.13;3.03;;;10.50;99.90;;;-144.05;84.25;56967.78;5080373;28;20028;-86
2023/03/10 08:50:15;;;;;;;7.00;3.40;;;10.40;99.90;;;-144.05;84.59;57001.75;5060590;28;20028;-84
2023/03/10 08:52:41;;;;;;;8.90;4.53;;;10.40;99.90;;;-144.05;85.17;57006.00;5061383;28;20033;-84
2023/03/10 08:55:09;;;;;;;7.00;3.53;;;10.40;99.90;;;-144.05;85.16;56982.66;5081601;28;20544;-85
2023/03/10 08:57:35;;;;;;;7.65;3.58;;;10.40;99.90;;;-144.05;85.06;57003.88;5079744;28;20050;-85
2023/03/10 09:00:05;;;;;;;12.00;3.80;;;10.50;99.90;;;-144.05;84.23;56993.25;5061646;28;20036;-85
2023/03/10 09:02:31;;;;;;;12.13;3.50;;;10.60;99.90;;;-144.05;84.02;56980.53;5079716;28;20104;-83
2023/03/10 09:04:57;;;;;;;9.10;3.47;;;10.80;99.90;;;-144.05;82.91;56989.00;5086861;28;20028;-81
2023/03/10 09:07:22;;;;;;;8.65;3.38;;;10.90;99.90;;;-144.05;82.24;56982.66;5072972;28;20388;-84
2023/03/10 09:09:50;;;;;;;8.35;2.72;;;11.10;99.90;;;-144.05;80.66;56989.00;5081214;28;20016;-83
2023/03/10 09:12:16;;;;;;;6.80;2.80;;;11.10;99.90;;;-144.05;80.92;57001.75;5087867;28;20029;-83
2023/03/10 09:14:42;;;;;;;9.82;2.60;;;11.20;99.90;;;-144.05;80.90;57025.13;5065207;28;20028;-85
2023/03/10 09:17:08;;;;;;;6.88;3.15;;;11.20;99.90;;;-144.05;80.37;56976.28;5064162;28;20096;-83
2023/03/10 09:19:34;;;;;;;8.48;2.90;;;11.40;99.90;;;-144.05;79.30;56995.38;5081230;28;20044;-85
2023/03/10 09:22:00;;;;;;;6.38;2.55;;;11.50;99.90;;;-144.05;78.60;56972.03;5080179;28;20025;-85
2023/03/10 09:24:26;;;;;;;7.32;2.28;;;11.60;99.90;;;-144.05;78.28;57001.75;5080974;28;20452;-83
2023/03/10 09:26:52;;;;;;;7.82;2.17;;;11.70;99.90;;;-144.05;76.15;56993.25;5062524;28;20025;-83
2023/03/10 09:29:17;;;;;;;10.55;2.17;;;11.50;99.90;;;-144.05;76.99;56986.91;5062168;28;20031;-82
2023/03/10 09:31:45;;;;;;;11.05;2.30;;;11.30;99.90;;;-144.05;78.36;57006.00;5080450;28;20511;-85
2023/03/10 09:34:11;;;;;;;5.30;2.45;;;11.10;99.90;;;-144.05;78.59;56984.78;5061445;28;20475;-84
2023/03/10 09:36:37;;;;;;;6.28;2.35;;;11.00;99.90;;;-144.05;79.30;56986.91;5081103;28;20075;-83
2023/03/10 09:39:04;;;;;;;7.00;2.00;;;10.90;99.90;;;-144.05;79.10;56986.91;5081269;28;20037;-82
2023/03/10 09:41:35;;;;;;;7.60;2.60;;;10.90;99.90;;;-144.05;79.20;56997.50;5080801;28;20039;-84
2023/03/10 09:44:38;;;;;;;9.70;2.10;;;11.00;99.90;;;-144.05;78.50;57001.75;5080725;28;20115;-83
2023/03/10 09:47:51;;;;;;;6.72;2.67;;;11.00;99.90;;;-144.05;78.98;56986.91;5060895;28;20048;-84
2023/03/10 09:50:33;;;;;;;13.90;2.30;;;11.10;99.90;;;-144.05;79.57;56997.50;5063906;28;20032;-83
2023/03/10 09:53:48;;;;;;;9.05;2.35;;;11.10;99.90;;;-144.05;78.92;56986.91;5064527;28;20029;-83
2023/03/10 09:56:31;;;;;;;8.27;3.05;;;11.20;99.90;;;-144.05;77.28;56982.66;5082598;28;20060;-83
2023/03/10 09:59:20;;;;;;;9.77;2.85;;;11.40;99.90;;;-144.05;76.17;56972.03;5064970;28;20024;-85
2023/03/10 10:01:51;;;;;;;6.45;2.45;;;11.50;99.90;;;-144.05;76.36;56995.38;5064473;28;20503;-83
2023/03/10 10:04:35;;;;;;;5.95;2.63;;;11.60;99.90;;;-144.05;76.20;56982.66;5082450;28;20056;-84
2023/03/10 10:07:16;;;;;;;12.02;2.70;;;11.50;99.90;;;-144.05;75.90;56984.78;5082039;28;20029;-83
2023/03/10 10:09:54;;;;;;;11.50;2.80;;;11.60;99.90;;;-144.05;75.68;56980.53;5062914;28;20035;-85
2023/03/10 10:12:24;;;;;;;10.50;3.10;;;11.70;99.90;;;-144.05;75.98;56993.25;5062915;28;20079;-84
2023/03/10 10:15:12;;;;;;;7.53;2.53;;;11.80;99.90;;;-144.05;74.83;56976.28;5081836;28;20048;-84
2023/03/10 10:18:36;;;;;;;6.78;2.38;;;11.70;99.90;;;-144.05;74.79;57003.88;5062867;28;20028;-85
2023/03/10 10:22:07;;;;;;;9.95;2.63;;;11.80;99.90;;;-144.05;74.10;56978.41;5061630;28;20507;-83
2023/03/10 10:24:33;;;;;;;6.50;2.15;;;11.70;99.90;;;-144.05;74.32;57001.75;5081446;28;20029;-85